Columbus, Ohio
Traffic Map
Current Weather Conditions
Columbus, Ohio
Scattered Clouds
Scattered Clouds
57°
Feels Like: 57°
Wind Chill: 57° Ceiling: Unl
Heat Index: 57° Visibility: 10mi
Dew Point: 37° Wind: 8mph
Humidity: 47% Direction: 140° (SE)
Pressure: 30.41in Gusts: 0mph
Raw Report DataKCMH 231251Z 14007KT 10SM SCT150 SCT250 14/03 A3041 RMK AO2 SLP296 T01390028
Traffic Incident Summary
Active as of:
Severity:
Category:
InformationThere was an issue retrieving the traffic information for this location. Please try a different location or try again shortly.
Advertisements
Track Severe Weather on mobile